createdAt,value
2022-11-01T00:02:10.812Z,9.57
2022-11-01T00:04:39.691Z,13.32
2022-11-01T00:07:08.567Z,12.95
2022-11-01T00:09:37.193Z,12.15
2022-11-01T00:12:06.422Z,14.05
2022-11-01T00:14:35.126Z,13.10
2022-11-01T00:17:03.720Z,15.23
2022-11-01T00:19:33.759Z,9.98
2022-11-01T00:22:02.477Z,12.23
2022-11-01T00:24:31.757Z,10.13
2022-11-01T00:27:01.035Z,9.70
2022-11-01T00:29:29.695Z,10.52
2022-11-01T00:31:58.390Z,16.10
2022-11-01T00:34:27.111Z,17.73
2022-11-01T00:36:57.154Z,23.30
2022-11-01T00:39:30.388Z,19.75
2022-11-01T00:42:00.365Z,12.63
2022-11-01T00:44:29.179Z,14.10
2022-11-01T00:46:57.810Z,14.73
2022-11-01T00:49:26.432Z,15.97
2022-11-01T00:51:56.461Z,14.50
2022-11-01T00:54:25.156Z,15.48
2022-11-01T00:56:53.764Z,14.60
2022-11-01T00:59:22.533Z,15.37
2022-11-01T01:01:51.388Z,15.23
2022-11-01T01:04:20.332Z,15.57
2022-11-01T01:06:48.999Z,14.38
2022-11-01T01:09:18.995Z,14.00
2022-11-01T01:11:47.708Z,18.48
2022-11-01T01:14:16.390Z,22.23
2022-11-01T01:16:45.965Z,21.80
2022-11-01T01:21:44.477Z,18.98
2022-11-01T01:24:13.286Z,17.20
2022-11-01T01:26:43.433Z,16.08
2022-11-01T01:29:12.090Z,14.02
2022-11-01T01:31:40.661Z,16.52
2022-11-01T01:34:09.336Z,15.32
2022-11-01T01:36:38.165Z,14.27
2022-11-01T01:39:06.772Z,16.20
2022-11-01T01:41:52.841Z,14.32
2022-11-01T01:44:58.782Z,12.15
2022-11-01T01:47:31.222Z,14.85
2022-11-01T01:50:03.806Z,12.68
2022-11-01T01:52:35.541Z,14.65
2022-11-01T01:55:07.966Z,14.93
2022-11-01T01:57:38.134Z,11.57
2022-11-01T02:00:08.056Z,15.95
2022-11-01T02:02:40.991Z,11.23
2022-11-01T02:05:17.138Z,12.18
2022-11-01T02:07:47.032Z,14.20
2022-11-01T02:10:17.160Z,12.93
2022-11-01T02:12:48.418Z,15.77
2022-11-01T02:15:18.299Z,10.65
2022-11-01T02:17:58.453Z,10.30
2022-11-01T02:21:24.251Z,8.45
2022-11-01T02:24:34.658Z,9.02
2022-11-01T02:27:14.979Z,9.18
2022-11-01T02:30:15.190Z,10.60
2022-11-01T02:32:57.537Z,7.68
2022-11-01T02:35:32.583Z,9.43
2022-11-01T02:38:07.870Z,10.25
2022-11-01T02:40:44.631Z,7.68
2022-11-01T02:43:19.694Z,10.60
2022-11-01T02:45:51.056Z,9.80
2022-11-01T02:48:23.069Z,9.55
2022-11-01T02:50:55.964Z,9.30
2022-11-01T02:53:24.778Z,9.45
2022-11-01T02:55:54.449Z,9.80
2022-11-01T02:58:26.452Z,10.95
2022-11-01T03:00:57.116Z,9.10
2022-11-01T03:03:33.822Z,8.73
2022-11-01T03:06:10.586Z,16.65
2022-11-01T03:08:43.007Z,16.58
2022-11-01T03:11:15.193Z,13.15
2022-11-01T03:14:02.094Z,15.93
2022-11-01T03:16:35.290Z,13.77
2022-11-01T03:19:19.435Z,13.43
2022-11-01T03:21:52.951Z,17.33
2022-11-01T03:24:26.305Z,15.32
2022-11-01T03:27:02.242Z,15.93
2022-11-01T03:29:32.816Z,13.98
2022-11-01T03:32:04.312Z,16.58
2022-11-01T03:34:37.631Z,16.60
2022-11-01T03:37:11.384Z,13.23
2022-11-01T03:39:44.972Z,12.90
2022-11-01T03:42:16.081Z,11.63
2022-11-01T03:44:48.973Z,13.95
2022-11-01T03:47:17.913Z,13.70
2022-11-01T03:49:47.931Z,10.82
2022-11-01T03:52:16.624Z,8.60
2022-11-01T03:54:45.263Z,12.88
2022-11-01T03:57:13.879Z,14.23
2022-11-01T03:59:42.572Z,10.38
2022-11-01T04:04:44.785Z,11.52
2022-11-01T04:07:14.772Z,11.63
2022-11-01T04:09:43.595Z,17.90
2022-11-01T04:12:12.235Z,14.57
2022-11-01T04:14:58.569Z,15.33
2022-11-01T04:17:44.746Z,23.95
2022-11-01T04:20:30.619Z,21.88
2022-11-01T04:23:01.247Z,23.10
2022-11-01T04:25:30.580Z,18.63
2022-11-01T04:27:59.189Z,20.52
2022-11-01T04:30:29.744Z,17.23
2022-11-01T04:32:58.647Z,18.17
2022-11-01T04:35:27.332Z,14.23
2022-11-01T04:38:01.299Z,19.05
2022-11-01T04:40:30.304Z,14.43
2022-11-01T04:43:00.226Z,13.37
2022-11-01T04:45:28.956Z,15.35
2022-11-01T04:48:05.013Z,18.83
2022-11-01T04:50:34.136Z,18.00
2022-11-01T04:53:04.768Z,18.27
2022-11-01T04:55:33.609Z,18.77
2022-11-01T04:58:02.221Z,16.65
2022-11-01T05:00:33.809Z,21.17
2022-11-01T05:03:03.983Z,16.60
2022-11-01T05:05:33.729Z,16.98
2022-11-01T05:08:04.829Z,12.57
2022-11-01T05:10:34.276Z,12.73
2022-11-01T05:13:03.679Z,16.92
2022-11-01T05:18:02.015Z,17.27
2022-11-01T05:23:05.534Z,14.82
2022-11-01T05:25:37.943Z,11.25
2022-11-01T05:28:09.503Z,10.55
2022-11-01T05:30:39.411Z,10.50
2022-11-01T05:33:09.128Z,12.10
2022-11-01T05:35:38.126Z,16.20
2022-11-01T05:38:08.196Z,14.57
2022-11-01T05:40:36.907Z,14.98
2022-11-01T05:43:05.801Z,14.90
2022-11-01T05:45:34.645Z,12.80
2022-11-01T05:48:06.786Z,11.07
2022-11-01T05:50:35.554Z,18.33
2022-11-01T05:53:10.535Z,15.33
2022-11-01T05:55:39.558Z,16.30
2022-11-01T05:58:08.495Z,12.20
2022-11-01T06:00:37.490Z,17.27
2022-11-01T06:03:07.244Z,15.45
2022-11-01T06:05:36.366Z,17.13
2022-11-01T06:08:05.616Z,14.05
2022-11-01T06:10:36.380Z,15.05
2022-11-01T06:13:05.223Z,15.65
2022-11-01T06:15:37.141Z,18.27
2022-11-01T06:18:08.590Z,13.13
2022-11-01T06:20:38.300Z,14.75
2022-11-01T06:23:11.267Z,18.38
2022-11-01T06:25:41.417Z,14.23
2022-11-01T06:28:10.135Z,13.40
2022-11-01T06:30:39.332Z,11.47
2022-11-01T06:33:09.686Z,13.65
2022-11-01T06:35:38.873Z,12.27
2022-11-01T06:38:08.705Z,13.50
2022-11-01T06:40:37.865Z,18.13
2022-11-01T06:43:07.927Z,17.65
2022-11-01T06:45:36.624Z,24.55
2022-11-01T06:48:06.228Z,19.08
2022-11-01T06:53:03.714Z,27.02
2022-11-01T06:55:32.641Z,21.35
2022-11-01T06:58:03.908Z,17.92
2022-11-01T07:00:34.467Z,17.55
2022-11-01T07:03:05.617Z,16.95
2022-11-01T07:05:37.544Z,15.50
2022-11-01T07:08:07.428Z,14.68
2022-11-01T07:13:06.898Z,15.20
2022-11-01T07:15:37.135Z,12.93
2022-11-01T07:18:08.393Z,14.68
2022-11-01T07:20:42.214Z,12.32
2022-11-01T07:23:14.027Z,12.73
2022-11-01T07:25:43.065Z,11.23
2022-11-01T07:28:12.370Z,12.85
2022-11-01T07:30:42.566Z,13.40
2022-11-01T07:33:11.261Z,17.83
2022-11-01T07:35:39.923Z,10.90
2022-11-01T07:38:11.605Z,13.47
2022-11-01T07:40:41.768Z,11.77
2022-11-01T07:43:11.095Z,11.82
2022-11-01T07:45:39.667Z,17.75
2022-11-01T07:48:12.581Z,15.35
2022-11-01T07:50:42.624Z,13.48
2022-11-01T07:53:12.891Z,13.93
2022-11-01T07:55:42.020Z,11.30
2022-11-01T07:58:11.317Z,10.90
2022-11-01T08:00:41.129Z,12.90
2022-11-01T08:03:14.055Z,14.27
2022-11-01T08:05:43.540Z,18.67
2022-11-01T08:08:12.482Z,11.63
2022-11-01T08:10:42.509Z,16.77
2022-11-01T08:13:17.201Z,15.30
2022-11-01T08:15:46.114Z,19.50
2022-11-01T08:18:16.511Z,17.52
2022-11-01T08:20:45.149Z,16.95
2022-11-01T08:23:13.795Z,15.30
2022-11-01T08:25:42.767Z,14.63
2022-11-01T08:28:14.776Z,15.43
2022-11-01T08:30:45.195Z,15.25
2022-11-01T08:33:18.031Z,15.82
2022-11-01T08:35:50.704Z,14.63
2022-11-01T08:38:19.752Z,16.75
2022-11-01T08:40:48.539Z,17.90
2022-11-01T08:43:17.721Z,12.38
2022-11-01T08:45:46.505Z,15.23
2022-11-01T08:48:16.726Z,11.15
2022-11-01T08:50:45.377Z,15.50
2022-11-01T08:53:15.595Z,12.60
2022-11-01T08:55:44.518Z,10.68
2022-11-01T08:58:13.471Z,15.07
2022-11-01T09:00:42.652Z,16.23
2022-11-01T09:03:11.508Z,9.07
2022-11-01T09:05:41.663Z,13.52
2022-11-01T09:08:10.444Z,11.68
2022-11-01T09:10:39.158Z,10.80
2022-11-01T09:13:07.935Z,11.93
2022-11-01T09:15:36.719Z,10.70
2022-11-01T09:18:09.306Z,10.23
2022-11-01T09:20:38.128Z,13.55
2022-11-01T09:23:08.137Z,11.40
2022-11-01T09:25:37.122Z,10.82
2022-11-01T09:28:05.978Z,8.73
2022-11-01T09:30:34.584Z,13.93
2022-11-01T09:33:05.917Z,12.03
2022-11-01T09:35:35.300Z,11.75
2022-11-01T09:38:05.142Z,10.60
2022-11-01T09:40:44.092Z,12.85
2022-11-01T09:43:16.882Z,12.73
2022-11-01T09:45:45.716Z,12.23
2022-11-01T09:48:16.511Z,13.17
2022-11-01T09:50:45.618Z,13.15
2022-11-01T09:53:19.641Z,13.30
2022-11-01T09:55:52.865Z,13.23
2022-11-01T09:58:31.610Z,13.13
2022-11-01T10:01:11.923Z,17.05
2022-11-01T10:03:57.996Z,16.63
2022-11-01T10:06:29.815Z,311.08
2022-11-01T10:09:06.069Z,36.92
2022-11-01T10:11:52.914Z,22.60
2022-11-01T10:14:38.521Z,13.65
2022-11-01T10:17:14.731Z,15.70
2022-11-01T10:19:46.726Z,14.10
2022-11-01T10:22:18.988Z,11.07
2022-11-01T10:24:53.035Z,14.95
2022-11-01T10:27:34.416Z,11.95
2022-11-01T10:30:09.960Z,13.07
2022-11-01T10:32:44.310Z,14.38
2022-11-01T10:35:18.786Z,13.43
2022-11-01T10:38:11.229Z,12.05
2022-11-01T10:40:51.027Z,14.18
2022-11-01T10:43:24.515Z,12.65
2022-11-01T10:45:56.822Z,15.07
2022-11-01T10:48:32.050Z,16.40
2022-11-01T10:51:03.835Z,12.65
2022-11-01T10:53:37.847Z,11.63
2022-11-01T10:56:10.244Z,17.98
2022-11-01T10:58:46.906Z,11.05
2022-11-01T11:01:20.400Z,11.40
2022-11-01T11:03:51.010Z,14.30
2022-11-01T11:06:20.870Z,16.73
2022-11-01T11:08:52.831Z,12.15
2022-11-01T11:11:32.346Z,16.77
2022-11-01T11:14:07.271Z,14.70
2022-11-01T11:16:40.514Z,14.38
2022-11-01T11:19:19.696Z,13.48
2022-11-01T11:21:50.263Z,14.43
2022-11-01T11:24:21.448Z,17.13
2022-11-01T11:26:54.410Z,15.30
2022-11-01T11:29:39.476Z,10.80
2022-11-01T11:32:16.089Z,13.90
2022-11-01T11:34:45.515Z,13.40
2022-11-01T11:37:21.526Z,11.88
2022-11-01T11:40:17.159Z,16.75
2022-11-01T11:42:46.215Z,11.88
2022-11-01T11:45:29.232Z,13.75
2022-11-01T11:47:59.568Z,12.00
2022-11-01T11:50:34.022Z,16.77
2022-11-01T11:53:07.926Z,11.43
2022-11-01T11:55:43.707Z,14.15
2022-11-01T11:58:28.083Z,12.98
2022-11-01T12:01:03.012Z,12.00
2022-11-01T12:03:37.104Z,11.95
2022-11-01T12:06:09.937Z,11.82
2022-11-01T12:08:46.827Z,12.93
2022-11-01T12:11:15.935Z,12.52
2022-11-01T12:13:46.731Z,13.48
2022-11-01T12:16:24.748Z,12.25
2022-11-01T12:18:58.449Z,12.05
2022-11-01T12:21:30.073Z,13.35
2022-11-01T12:24:03.922Z,12.30
2022-11-01T12:26:36.668Z,12.02
2022-11-01T12:29:17.418Z,15.48
2022-11-01T12:31:49.808Z,12.35
2022-11-01T12:34:23.385Z,13.13
2022-11-01T12:36:58.565Z,17.73
2022-11-01T12:39:41.204Z,15.00
2022-11-01T12:42:13.466Z,13.55
2022-11-01T12:44:45.229Z,12.73
2022-11-01T12:47:21.109Z,14.93
2022-11-01T12:49:55.802Z,15.13
2022-11-01T12:52:31.439Z,17.52
2022-11-01T12:55:06.217Z,15.65
2022-11-01T12:57:35.517Z,19.05
2022-11-01T13:00:05.985Z,16.85
2022-11-01T13:02:53.384Z,17.90
2022-11-01T13:05:23.827Z,19.13
2022-11-01T13:08:01.760Z,16.27
2022-11-01T13:10:36.024Z,21.63
2022-11-01T13:13:17.364Z,16.48
2022-11-01T13:15:59.971Z,15.77
2022-11-01T13:18:39.405Z,14.70
2022-11-01T13:21:14.132Z,12.95
2022-11-01T13:23:49.170Z,12.57
2022-11-01T13:26:23.689Z,13.63
2022-11-01T13:29:06.699Z,16.50
2022-11-01T13:32:01.050Z,19.30
2022-11-01T13:34:45.921Z,16.70
2022-11-01T13:37:25.490Z,22.10
2022-11-01T13:40:09.874Z,24.45
2022-11-01T13:42:41.841Z,23.63
2022-11-01T13:45:33.531Z,23.05
2022-11-01T13:48:11.437Z,23.83
2022-11-01T13:51:02.699Z,23.50
2022-11-01T13:53:35.514Z,28.67
2022-11-01T13:56:10.263Z,28.73
2022-11-01T13:58:39.065Z,24.73
2022-11-01T14:01:40.675Z,25.05
2022-11-01T14:04:28.748Z,21.30
2022-11-01T14:07:16.372Z,22.70
2022-11-01T14:09:47.063Z,23.35
2022-11-01T14:12:38.015Z,21.45
2022-11-01T14:15:22.212Z,23.92
2022-11-01T14:18:07.549Z,24.10
2022-11-01T14:20:51.730Z,22.05
2022-11-01T14:24:07.063Z,24.08
2022-11-01T14:27:05.139Z,25.65
2022-11-01T14:29:36.754Z,18.58
2022-11-01T14:32:07.008Z,26.42
2022-11-01T14:34:39.073Z,26.80
2022-11-01T14:37:25.897Z,22.33
2022-11-01T14:40:05.172Z,22.98
2022-11-01T14:42:43.710Z,22.08
2022-11-01T14:45:27.900Z,23.80
2022-11-01T14:48:01.837Z,26.30
2022-11-01T14:50:37.590Z,24.73
2022-11-01T14:53:11.223Z,25.85
2022-11-01T14:55:41.319Z,23.23
2022-11-01T14:58:17.443Z,23.33
2022-11-01T15:00:46.690Z,26.33
2022-11-01T15:03:16.047Z,17.20
2022-11-01T15:05:47.881Z,17.52
2022-11-01T15:08:25.667Z,19.38
2022-11-01T15:10:59.407Z,20.00
2022-11-01T15:13:29.749Z,19.23
2022-11-01T15:16:07.771Z,22.38
2022-11-01T15:18:40.303Z,21.42
2022-11-01T15:23:49.407Z,30.33
2022-11-01T15:26:22.232Z,24.10
2022-11-01T15:28:55.081Z,24.63
2022-11-01T15:31:24.426Z,24.88
2022-11-01T15:33:57.864Z,22.10
2022-11-01T15:36:31.791Z,22.17
2022-11-01T15:39:02.757Z,30.60
2022-11-01T15:41:34.044Z,23.83
2022-11-01T15:44:03.911Z,29.48
2022-11-01T15:46:34.656Z,31.38
2022-11-01T15:49:09.473Z,28.55
2022-11-01T15:51:42.769Z,27.05
2022-11-01T15:54:25.657Z,30.95
2022-11-01T15:57:02.136Z,32.90
2022-11-01T15:59:36.133Z,29.73
2022-11-01T16:02:08.310Z,29.42
2022-11-01T16:04:42.227Z,27.13
2022-11-01T16:07:15.226Z,26.33
2022-11-01T16:09:47.036Z,24.63
2022-11-01T16:12:21.217Z,27.40
2022-11-01T16:14:55.642Z,27.55
2022-11-01T16:17:31.941Z,26.30
2022-11-01T16:20:04.863Z,32.67
2022-11-01T16:22:39.253Z,29.48
2022-11-01T16:25:24.073Z,28.17
2022-11-01T16:27:57.974Z,23.50
2022-11-01T16:30:42.835Z,27.20
2022-11-01T16:33:19.009Z,33.30
2022-11-01T16:35:49.753Z,24.70
2022-11-01T16:38:45.914Z,23.17
2022-11-01T16:41:20.449Z,23.15
2022-11-01T16:43:55.015Z,27.02
2022-11-01T16:46:25.412Z,27.88
2022-11-01T16:48:56.169Z,26.88
2022-11-01T16:51:28.547Z,24.40
2022-11-01T16:53:58.392Z,24.13
2022-11-01T16:56:37.890Z,21.50
2022-11-01T16:59:10.176Z,27.20
2022-11-01T17:01:39.598Z,31.48
2022-11-01T17:06:38.971Z,26.25
2022-11-01T17:09:13.793Z,28.70
2022-11-01T17:11:47.835Z,20.38
2022-11-01T17:14:19.136Z,29.80
2022-11-01T17:16:48.469Z,28.50
2022-11-01T17:19:24.337Z,26.75
2022-11-01T17:21:53.974Z,21.40
2022-11-01T17:24:25.737Z,23.48
2022-11-01T17:26:58.023Z,22.00
2022-11-01T17:29:28.260Z,23.48
2022-11-01T17:31:56.906Z,21.92
2022-11-01T17:34:26.580Z,21.10
2022-11-01T17:36:57.397Z,22.90
2022-11-01T17:39:28.937Z,20.45
2022-11-01T17:41:57.973Z,26.40
2022-11-01T17:44:28.049Z,26.27
2022-11-01T17:46:56.686Z,22.42
2022-11-01T17:49:25.839Z,24.00
2022-11-01T17:51:55.265Z,23.35
2022-11-01T17:56:52.387Z,25.77
2022-11-01T17:59:21.219Z,20.23
2022-11-01T18:01:51.343Z,27.35
2022-11-01T18:04:20.013Z,28.25
2022-11-01T18:06:48.902Z,27.63
2022-11-01T18:09:22.911Z,26.88
2022-11-01T18:12:00.907Z,25.67
2022-11-01T18:14:47.338Z,31.42
2022-11-01T18:17:33.322Z,26.63
2022-11-01T18:20:10.070Z,24.15
2022-11-01T18:22:49.743Z,28.98
2022-11-01T18:25:27.126Z,28.92
2022-11-01T18:27:58.427Z,34.28
2022-11-01T18:30:27.092Z,41.65
2022-11-01T18:33:03.970Z,35.47
2022-11-01T18:35:36.119Z,32.75
2022-11-01T18:38:14.566Z,40.25
2022-11-01T18:40:53.050Z,30.35
2022-11-01T18:43:22.406Z,35.80
2022-11-01T18:46:22.913Z,41.35
2022-11-01T18:48:41.353Z,32.38
2022-11-01T18:51:16.412Z,31.25
2022-11-01T18:53:45.050Z,29.38
2022-11-01T18:56:21.998Z,27.73
2022-11-01T18:58:52.445Z,36.75
2022-11-01T19:01:22.878Z,31.48
2022-11-01T19:04:01.917Z,57.25
2022-11-01T19:06:33.764Z,46.67
2022-11-01T19:09:15.414Z,51.97
2022-11-01T19:11:44.140Z,55.35
2022-11-01T19:14:17.073Z,44.73
2022-11-01T19:16:46.184Z,48.78
2022-11-01T19:19:19.771Z,36.22
2022-11-01T19:21:48.985Z,43.35
2022-11-01T19:24:35.330Z,39.83
2022-11-01T19:27:10.537Z,46.33
2022-11-01T19:29:39.233Z,46.05
2022-11-01T19:32:16.957Z,42.83
2022-11-01T19:34:48.735Z,57.10
2022-11-01T19:37:25.382Z,42.97
2022-11-01T19:39:54.996Z,51.75
2022-11-01T19:42:28.011Z,50.63
2022-11-01T19:44:59.674Z,55.60
2022-11-01T19:47:38.272Z,48.95
2022-11-01T19:50:23.253Z,47.60
2022-11-01T19:52:53.502Z,49.65
2022-11-01T19:55:48.486Z,49.65
2022-11-01T19:58:37.030Z,45.45
2022-11-01T20:01:33.554Z,60.65
2022-11-01T20:04:04.101Z,54.53
2022-11-01T20:06:37.473Z,58.80
2022-11-01T20:09:10.481Z,48.92
2022-11-01T20:11:39.200Z,49.67
2022-11-01T20:14:07.840Z,68.57
2022-11-01T20:16:36.437Z,60.60
2022-11-01T20:19:05.147Z,55.43
2022-11-01T20:21:35.254Z,52.10
2022-11-01T20:24:04.792Z,54.05
2022-11-01T20:29:02.220Z,56.53
2022-11-01T20:31:31.449Z,43.72
2022-11-01T20:34:00.497Z,55.72
2022-11-01T20:36:29.417Z,57.47
2022-11-01T20:38:59.527Z,67.63
2022-11-01T20:41:28.478Z,64.13
2022-11-01T20:43:57.202Z,74.05
2022-11-01T20:46:25.810Z,68.15
2022-11-01T20:48:54.470Z,56.87
2022-11-01T20:51:23.836Z,67.03
2022-11-01T20:53:55.699Z,65.00
2022-11-01T20:56:27.377Z,55.25
2022-11-01T20:58:56.871Z,49.58
2022-11-01T21:01:26.225Z,79.82
2022-11-01T21:06:31.603Z,68.82
2022-11-01T21:09:01.178Z,75.53
2022-11-01T21:14:18.354Z,79.05
2022-11-01T21:16:48.517Z,64.05
2022-11-01T21:19:22.473Z,61.17
2022-11-01T21:21:54.970Z,52.05
2022-11-01T21:24:32.606Z,76.85
2022-11-01T21:27:31.402Z,57.53
2022-11-01T21:30:18.419Z,81.57
2022-11-01T21:32:47.429Z,85.55
2022-11-01T21:35:47.828Z,74.72
2022-11-01T21:38:37.985Z,79.07
2022-11-01T21:41:28.894Z,81.53
2022-11-01T21:44:03.519Z,75.22
2022-11-01T21:46:39.168Z,82.53
2022-11-01T21:49:28.578Z,85.22
2022-11-01T21:54:29.113Z,86.55
2022-11-01T21:59:31.434Z,90.13
2022-11-01T22:02:02.501Z,105.32
2022-11-01T22:04:32.612Z,93.45
2022-11-01T22:07:02.846Z,101.50
2022-11-01T22:09:33.474Z,126.57
2022-11-01T22:12:04.998Z,112.93
2022-11-01T22:14:35.633Z,97.97
2022-11-01T22:17:04.323Z,133.48
2022-11-01T22:19:33.011Z,118.70
2022-11-01T22:22:02.091Z,117.78
2022-11-01T22:24:31.361Z,95.90
2022-11-01T22:27:02.373Z,139.60
2022-11-01T22:29:31.735Z,132.20
2022-11-01T22:32:01.756Z,111.53
2022-11-01T22:34:30.511Z,116.55
2022-11-01T22:36:59.798Z,107.97
2022-11-01T22:41:58.965Z,118.82
2022-11-01T22:44:30.059Z,100.47
2022-11-01T22:47:01.539Z,108.78
2022-11-01T22:49:34.259Z,91.57
2022-11-01T22:52:06.469Z,110.85
2022-11-01T22:54:40.407Z,94.18
2022-11-01T22:57:16.997Z,84.57
2022-11-01T22:59:48.719Z,101.80
2022-11-01T23:02:29.264Z,87.63
2022-11-01T23:05:23.445Z,84.70
2022-11-01T23:07:54.005Z,108.25
2022-11-01T23:10:32.041Z,96.25
2022-11-01T23:13:25.250Z,96.53
2022-11-01T23:15:55.287Z,93.10
2022-11-01T23:18:30.094Z,110.68
2022-11-01T23:21:03.304Z,95.25
2022-11-01T23:23:32.842Z,87.20
2022-11-01T23:26:04.247Z,91.15
2022-11-01T23:28:35.404Z,115.15
2022-11-01T23:31:05.620Z,94.45
2022-11-01T23:33:39.938Z,95.57
2022-11-01T23:36:17.620Z,100.15
2022-11-01T23:38:49.640Z,91.43
2022-11-01T23:41:23.161Z,98.07
2022-11-01T23:43:53.373Z,73.65
2022-11-01T23:46:22.601Z,91.60
2022-11-01T23:48:51.769Z,103.83
2022-11-01T23:51:23.089Z,113.43
2022-11-01T23:53:54.344Z,87.57
2022-11-01T23:56:23.321Z,99.70
2022-11-01T23:58:57.059Z,88.00
